Time;durP1;ratioP1;P1;durP2;ratioP2;P2;SDS_P1;SDS_P2;PMS_P1;PMS_P2;Temp;Humidity;BMP_temperature;BMP_pressure;BME280_temperature;BME280_humidity;BME280_pressure;Samples;Min_cycle;Max_cycle;Signal;HPM_P1;HPM_P2
2022/08/11 00:00:56;;;;;;;3.93;2.60;;;15.80;57.70;;;;;;5071039;28;20427;-62
2022/08/11 00:03:22;;;;;;;3.20;2.87;;;15.80;57.80;;;;;;5077051;28;20436;-63
2022/08/11 00:05:53;;;;;;;3.87;2.70;;;15.80;57.90;;;;;;5069436;28;20435;-62
2022/08/11 00:08:27;;;;;;;4.80;2.87;;;15.70;58.30;;;;;;5082371;28;20181;-62
2022/08/11 00:11:04;;;;;;;5.20;3.10;;;15.70;58.20;;;;;;5071681;28;20592;-62
2022/08/11 00:13:36;;;;;;;4.67;3.03;;;15.70;58.30;;;;;;5072947;28;20452;-62
2022/08/11 00:16:09;;;;;;;3.77;2.60;;;15.70;58.50;;;;;;5070418;28;20471;-62
2022/08/11 00:18:41;;;;;;;5.33;3.20;;;15.70;58.40;;;;;;5071723;28;20432;-62
2022/08/11 00:21:08;;;;;;;2.90;2.70;;;15.70;58.30;;;;;;5070440;28;20436;-62
2022/08/11 00:23:40;;;;;;;3.97;3.13;;;15.70;58.40;;;;;;5071991;28;21233;-62
2022/08/11 00:26:07;;;;;;;5.37;2.90;;;15.70;58.80;;;;;;5069616;28;20431;-62
2022/08/11 00:28:34;;;;;;;4.70;3.00;;;15.70;58.80;;;;;;5078971;28;20437;-62
2022/08/11 00:31:05;;;;;;;4.07;2.80;;;15.70;58.70;;;;;;5070317;28;20984;-62
2022/08/11 00:33:43;;;;;;;4.00;3.07;;;15.70;58.90;;;;;;5073406;28;20527;-62
2022/08/11 00:36:13;;;;;;;6.93;3.03;;;15.70;59.20;;;;;;5070977;28;20416;-62
2022/08/11 00:38:41;;;;;;;3.63;3.07;;;15.60;59.40;;;;;;5071452;28;20424;-63
2022/08/11 00:41:25;;;;;;;3.60;3.20;;;15.60;59.60;;;;;;5072078;28;21240;-62
2022/08/11 00:44:10;;;;;;;7.93;2.70;;;15.60;60.00;;;;;;5069683;28;20502;-62
2022/08/11 00:47:13;;;;;;;3.40;3.10;;;15.60;59.80;;;;;;5076558;28;20440;-61
2022/08/11 00:49:51;;;;;;;3.47;3.17;;;15.60;59.70;;;;;;5070581;28;20422;-61
2022/08/11 00:52:34;;;;;;;7.07;3.40;;;15.60;59.70;;;;;;5075227;28;20488;-62
2022/08/11 00:55:29;;;;;;;4.87;2.97;;;15.60;59.80;;;;;;5074073;28;20420;-63
2022/08/11 00:58:17;;;;;;;3.27;2.97;;;15.50;59.70;;;;;;5065830;28;21920;-62
2022/08/11 01:01:07;;;;;;;3.93;3.20;;;15.50;59.50;;;;;;5074572;28;20447;-62
2022/08/11 01:03:36;;;;;;;3.87;3.00;;;15.50;59.40;;;;;;5084844;28;20504;-62
2022/08/11 01:06:28;;;;;;;3.00;2.80;;;15.50;59.40;;;;;;5078814;28;20490;-62
2022/08/11 01:08:54;;;;;;;3.60;3.30;;;15.50;59.30;;;;;;5080036;28;20428;-62
2022/08/11 01:11:35;;;;;;;3.27;2.97;;;15.50;59.20;;;;;;5083128;28;20467;-62
2022/08/11 01:14:19;;;;;;;5.70;2.80;;;15.50;59.00;;;;;;5074814;28;20197;-62
2022/08/11 01:17:12;;;;;;;3.40;3.10;;;15.50;59.10;;;;;;5078192;28;20776;-62
2022/08/11 01:19:43;;;;;;;7.73;2.93;;;15.50;59.10;;;;;;5071191;28;20943;-62
2022/08/11 01:22:24;;;;;;;4.37;3.70;;;15.50;59.40;;;;;;5068929;28;20941;-61
2022/08/11 01:25:13;;;;;;;4.90;3.80;;;15.50;59.60;;;;;;5069279;28;20524;-62
2022/08/11 01:28:13;;;;;;;4.57;3.13;;;15.50;59.70;;;;;;5086480;28;20436;-61
2022/08/11 01:31:04;;;;;;;4.73;2.87;;;15.40;59.50;;;;;;5075738;28;20463;-62
2022/08/11 01:34:07;;;;;;;3.50;3.07;;;15.40;59.70;;;;;;5074511;28;20472;-61
2022/08/11 01:36:47;;;;;;;11.67;3.17;;;15.40;59.90;;;;;;5076519;28;20453;-61
2022/08/11 01:39:46;;;;;;;3.20;3.00;;;15.40;59.80;;;;;;5071051;28;20417;-62
2022/08/11 01:45:39;;;;;;;3.40;3.10;;;15.30;60.00;;;;;;5071522;28;20427;-61
2022/08/11 01:48:19;;;;;;;3.70;3.40;;;15.30;60.40;;;;;;5080500;28;20424;-62
2022/08/11 01:50:47;;;;;;;8.73;3.57;;;15.30;60.60;;;;;;5085099;28;20543;-61
2022/08/11 01:53:32;;;;;;;4.80;3.37;;;15.30;60.70;;;;;;5082480;28;20513;-61
2022/08/11 01:56:22;;;;;;;5.10;3.10;;;15.30;60.70;;;;;;5082381;28;20428;-61
2022/08/11 01:59:06;;;;;;;3.73;3.30;;;15.30;61.00;;;;;;5089637;28;20412;-61
2022/08/11 02:02:08;;;;;;;3.43;3.13;;;15.30;61.20;;;;;;5081589;28;20462;-62
2022/08/11 02:04:44;;;;;;;5.23;3.53;;;15.30;61.20;;;;;;5082945;28;20431;-61
2022/08/11 02:07:15;;;;;;;4.17;3.70;;;15.30;61.30;;;;;;5084118;28;20511;-62
2022/08/11 02:13:02;;;;;;;3.93;3.23;;;15.30;61.60;;;;;;5080481;28;20541;-62
2022/08/11 02:15:40;;;;;;;5.37;3.10;;;15.20;61.80;;;;;;5080427;28;20948;-61
2022/08/11 02:23:38;;;;;;;4.20;3.50;;;15.20;62.10;;;;;;5084698;28;20400;-62
2022/08/11 02:24:22;;;;;;;6.80;3.60;;;15.20;62.20;;;;;;5070149;28;20531;-62
2022/08/11 02:27:14;;;;;;;4.43;3.43;;;15.20;62.50;;;;;;5086818;28;20529;-62
2022/08/11 02:30:06;;;;;;;4.20;3.80;;;15.20;62.80;;;;;;5075778;28;20417;-61
2022/08/11 02:35:57;;;;;;;4.97;3.60;;;15.10;63.20;;;;;;5075532;28;20454;-62
2022/08/11 02:38:54;;;;;;;5.23;3.80;;;15.10;63.10;;;;;;5069043;28;21002;-63
2022/08/11 02:44:50;;;;;;;8.67;4.30;;;15.10;63.70;;;;;;5068616;28;20426;-62
2022/08/11 02:47:25;;;;;;;5.50;3.20;;;15.10;63.80;;;;;;5076891;28;20437;-62
2022/08/11 02:50:00;;;;;;;6.53;3.93;;;15.10;63.90;;;;;;5068324;28;20442;-61
2022/08/11 02:52:44;;;;;;;4.13;3.73;;;15.10;64.50;;;;;;5085035;28;20513;-62
2022/08/11 02:55:33;;;;;;;5.93;3.90;;;15.10;64.80;;;;;;5071993;28;20995;-62
2022/08/11 02:58:29;;;;;;;5.00;3.70;;;15.10;65.10;;;;;;5082496;28;20420;-62
2022/08/11 03:01:18;;;;;;;4.47;4.07;;;15.10;65.10;;;;;;5074336;28;20415;-62
2022/08/11 03:04:05;;;;;;;4.27;3.73;;;15.10;65.20;;;;;;5081577;28;20451;-62
2022/08/11 03:07:00;;;;;;;5.83;4.40;;;15.10;65.60;;;;;;5076042;28;20456;-62
2022/08/11 03:09:45;;;;;;;3.90;3.50;;;15.10;65.60;;;;;;5080573;28;20493;-62
2022/08/11 03:18:40;;;;;;;5.03;3.50;;;15.10;65.70;;;;;;5083942;28;20455;-63
2022/08/11 03:21:05;;;;;;;4.80;3.97;;;15.10;65.90;;;;;;5081973;28;20432;-62
2022/08/11 03:23:57;;;;;;;3.63;3.33;;;15.10;66.40;;;;;;5083697;28;20459;-62
2022/08/11 03:26:30;;;;;;;5.43;4.10;;;15.10;66.80;;;;;;5077448;28;20253;-62
2022/08/11 03:29:20;;;;;;;4.30;3.90;;;15.10;67.20;;;;;;5077162;28;20419;-63
2022/08/11 03:31:54;;;;;;;4.40;3.87;;;15.00;67.80;;;;;;5080499;28;20478;-62
2022/08/11 03:34:24;;;;;;;5.10;4.20;;;15.00;68.00;;;;;;5069347;28;20452;-62
2022/08/11 03:37:49;;;;;;;7.07;4.00;;;14.90;68.50;;;;;;5074588;28;20804;-62
2022/08/11 03:40:12;;;;;;;6.17;4.10;;;14.80;68.90;;;;;;5082545;28;20404;-62
2022/08/11 03:43:02;;;;;;;4.87;4.47;;;14.80;68.80;;;;;;5084243;28;20446;-62
2022/08/11 03:45:36;;;;;;;5.33;3.80;;;14.70;69.50;;;;;;5072892;28;20434;-62
2022/08/11 03:48:14;;;;;;;4.40;3.80;;;14.70;69.50;;;;;;5072941;28;20416;-62
2022/08/11 03:50:52;;;;;;;5.23;4.63;;;14.60;69.80;;;;;;5080378;28;20420;-63
2022/08/11 03:53:37;;;;;;;4.73;4.33;;;14.60;70.50;;;;;;5067510;28;20448;-62
2022/08/11 03:56:05;;;;;;;5.73;4.20;;;14.50;71.80;;;;;;5071301;28;20468;-62
2022/08/11 03:59:06;;;;;;;5.77;3.80;;;14.50;71.90;;;;;;5087590;28;20407;-62
2022/08/11 04:02:07;;;;;;;4.30;3.90;;;14.50;72.60;;;;;;5065683;28;20543;-62
2022/08/11 04:04:36;;;;;;;6.63;4.70;;;14.40;72.90;;;;;;5073784;28;20428;-62
2022/08/11 04:07:13;;;;;;;5.13;4.70;;;14.40;73.40;;;;;;5082159;28;20461;-63
2022/08/11 04:09:48;;;;;;;4.43;4.03;;;14.40;74.10;;;;;;5082238;28;20438;-62
2022/08/11 04:12:51;;;;;;;5.07;4.20;;;14.40;74.70;;;;;;5077020;28;20554;-62
2022/08/11 04:16:02;;;;;;;4.43;4.13;;;14.40;74.60;;;;;;5085893;28;20428;-62
2022/08/11 04:19:05;;;;;;;5.80;4.80;;;14.40;75.00;;;;;;5087008;28;20419;-62
2022/08/11 04:22:08;;;;;;;6.10;4.50;;;14.30;75.40;;;;;;5073594;28;20448;-62
2022/08/11 04:24:42;;;;;;;5.30;4.77;;;14.30;75.80;;;;;;5073530;28;20951;-62
2022/08/11 04:27:20;;;;;;;5.50;4.23;;;14.30;76.80;;;;;;5083482;28;20476;-62
2022/08/11 04:30:04;;;;;;;4.53;4.13;;;14.20;77.40;;;;;;5075818;28;20451;-62
2022/08/11 04:32:33;;;;;;;5.67;4.53;;;14.20;77.60;;;;;;5083876;28;20474;-62
2022/08/11 04:35:07;;;;;;;4.77;4.07;;;14.20;78.00;;;;;;5086593;28;20999;-62
2022/08/11 04:37:52;;;;;;;10.20;4.60;;;14.20;78.80;;;;;;5076059;28;20431;-63
2022/08/11 04:40:38;;;;;;;8.87;4.93;;;14.20;79.20;;;;;;5092582;28;21132;-62
2022/08/11 04:43:41;;;;;;;4.53;4.10;;;14.20;78.90;;;;;;5068872;28;20447;-62
2022/08/11 04:46:44;;;;;;;5.97;4.10;;;14.20;79.00;;;;;;5080147;28;20752;-62
2022/08/11 05:07:56;;;;;;;4.70;4.30;;;14.50;79.30;;;;;;5083004;28;20455;-62
2022/08/11 05:10:33;;;;;;;5.73;4.60;;;14.50;78.40;;;;;;5085203;28;20461;-62
2022/08/11 05:36:02;;;;;;;8.53;4.30;;;15.30;75.40;;;;;;5079887;28;20492;-63
2022/08/11 05:58:02;;;;;;;8.07;3.73;;;16.50;66.40;;;;;;5076349;28;20438;-59
2022/08/11 06:00:29;;;;;;;4.90;4.27;;;16.70;65.60;;;;;;5081067;28;20433;-60
2022/08/11 06:03:00;;;;;;;9.10;4.47;;;16.90;65.20;;;;;;5068681;28;20475;-60
2022/08/11 06:05:37;;;;;;;5.10;3.70;;;17.00;63.30;;;;;;5077459;28;20432;-61
2022/08/11 06:08:06;;;;;;;6.63;4.47;;;17.10;62.80;;;;;;5078180;28;20436;-60
2022/08/11 06:10:32;;;;;;;5.60;4.50;;;17.30;62.00;;;;;;5076300;28;20464;-61
2022/08/11 06:12:59;;;;;;;5.87;4.53;;;17.30;61.90;;;;;;5081708;28;20933;-61
2022/08/11 06:15:27;;;;;;;6.43;4.37;;;17.40;61.40;;;;;;5087893;28;20404;-60
2022/08/11 06:17:54;;;;;;;6.43;4.00;;;17.50;61.60;;;;;;5073389;28;20433;-60
2022/08/11 06:20:22;;;;;;;11.23;3.50;;;17.60;61.50;;;;;;5071889;28;20450;-60
2022/08/11 06:22:56;;;;;;;11.63;3.50;;;17.80;60.70;;;;;;5078088;28;20829;-62
2022/08/11 06:25:29;;;;;;;4.97;3.87;;;18.00;59.70;;;;;;5075165;28;20568;-62
2022/08/11 06:27:56;;;;;;;6.00;4.17;;;18.20;58.80;;;;;;5068910;28;20651;-60
2022/08/11 06:30:38;;;;;;;7.63;4.63;;;18.30;57.90;;;;;;5078466;28;20428;-61
2022/08/11 06:33:08;;;;;;;5.33;3.80;;;18.50;57.40;;;;;;5075873;28;20691;-62
2022/08/11 06:35:47;;;;;;;4.17;3.77;;;18.60;57.00;;;;;;5080866;28;20424;-62
2022/08/11 06:38:22;;;;;;;4.13;3.50;;;18.60;57.20;;;;;;5075333;28;20504;-62
2022/08/11 06:44:13;;;;;;;6.73;3.30;;;18.70;56.70;;;;;;5073191;28;20443;-62
2022/08/11 06:46:46;;;;;;;4.00;3.60;;;18.80;56.30;;;;;;5080026;28;20416;-62
2022/08/11 06:52:15;;;;;;;4.60;3.23;;;18.90;55.90;;;;;;5083503;28;20520;-62
2022/08/11 06:54:49;;;;;;;5.40;3.67;;;19.00;55.60;;;;;;5082100;28;20500;-61
2022/08/11 07:02:52;;;;;;;9.90;3.53;;;19.30;54.70;;;;;;5071190;28;20894;-62
2022/08/11 07:05:48;;;;;;;5.13;3.97;;;19.30;54.60;;;;;;5076824;28;20429;-53
2022/08/11 07:28:54;;;;;;;11.30;3.37;;;19.60;54.20;;;;;;5071719;28;20509;-62
2022/08/11 07:28:56;;;;;;;8.70;3.73;;;20.00;53.80;;;;;;5074665;28;21757;-62
2022/08/11 07:31:35;;;;;;;4.50;3.83;;;20.10;53.40;;;;;;5072373;28;20487;-64
2022/08/11 07:34:19;;;;;;;4.33;3.40;;;20.20;53.40;;;;;;5070489;28;20446;-62
2022/08/11 07:36:50;;;;;;;9.00;3.83;;;20.30;53.40;;;;;;5078644;28;20427;-62
2022/08/11 07:39:26;;;;;;;10.40;3.90;;;20.40;53.10;;;;;;5080355;28;20455;-63
2022/08/11 07:41:55;;;;;;;3.43;3.13;;;20.50;52.80;;;;;;5070339;28;20451;-62
2022/08/11 07:44:27;;;;;;;3.67;3.37;;;20.50;52.80;;;;;;5070982;28;20792;-62
2022/08/11 07:52:31;;;;;;;4.17;3.37;;;20.70;52.70;;;;;;5074862;28;20458;-63
2022/08/11 07:55:00;;;;;;;5.70;3.50;;;20.80;52.60;;;;;;5077825;28;20436;-61
2022/08/11 08:19:31;;;;;;;4.80;3.10;;;21.70;51.70;;;;;;5071672;28;20473;-63
2022/08/11 08:21:57;;;;;;;4.80;2.80;;;21.80;51.90;;;;;;5072025;28;20920;-63
2022/08/11 08:24:24;;;;;;;6.00;3.33;;;21.90;51.90;;;;;;5072091;28;20596;-62
2022/08/11 08:26:59;;;;;;;6.83;3.30;;;21.90;51.70;;;;;;5070152;28;20447;-61
2022/08/11 08:32:21;;;;;;;4.60;3.67;;;22.20;51.50;;;;;;5075534;28;20548;-60
2022/08/11 08:34:49;;;;;;;4.40;3.23;;;22.30;51.20;;;;;;5076188;28;20482;-65
2022/08/11 08:37:19;;;;;;;4.70;3.40;;;22.30;50.80;;;;;;5075746;28;20184;-61
2022/08/11 08:39:46;;;;;;;6.03;3.27;;;22.40;50.40;;;;;;5074015;28;20510;-62
2022/08/11 08:42:18;;;;;;;7.53;3.43;;;22.50;50.10;;;;;;5069280;28;20817;-64
2022/08/11 08:44:49;;;;;;;6.27;3.50;;;22.50;50.30;;;;;;5074850;28;20569;-63
2022/08/11 08:47:17;;;;;;;4.13;3.50;;;22.60;50.60;;;;;;5079101;28;20432;-61
2022/08/11 08:49:50;;;;;;;3.60;3.10;;;22.70;50.60;;;;;;5079163;28;20431;-62
2022/08/11 08:52:20;;;;;;;4.50;2.97;;;22.80;50.20;;;;;;5077342;28;20463;-62
2022/08/11 08:54:49;;;;;;;4.13;3.23;;;22.90;50.30;;;;;;5072116;28;20429;-62
2022/08/11 08:57:18;;;;;;;7.07;3.57;;;23.00;50.00;;;;;;5073725;28;20444;-60
2022/08/11 08:59:47;;;;;;;4.60;3.10;;;23.10;49.70;;;;;;5068398;28;20443;-62
2022/08/11 09:02:13;;;;;;;3.40;2.80;;;23.20;48.90;;;;;;5070690;28;20447;-63
2022/08/11 09:04:42;;;;;;;3.57;3.27;;;23.30;48.70;;;;;;5069241;28;20443;-60
2022/08/11 09:07:14;;;;;;;4.13;2.80;;;23.30;48.40;;;;;;5076421;28;20746;-63
2022/08/11 09:09:46;;;;;;;5.50;3.83;;;23.50;48.80;;;;;;5074163;28;20925;-63
2022/08/11 09:12:12;;;;;;;5.90;3.57;;;23.60;48.80;;;;;;5072873;28;21047;-64
2022/08/11 09:17:27;;;;;;;6.13;3.17;;;23.80;48.20;;;;;;5067857;28;20443;-62
2022/08/11 09:20:04;;;;;;;3.97;3.03;;;23.90;48.00;;;;;;5075262;28;20435;-61
2022/08/11 09:28:10;;;;;;;4.83;3.07;;;24.30;48.00;;;;;;5076990;28;20515;-62
2022/08/11 09:30:39;;;;;;;5.17;3.10;;;24.30;47.10;;;;;;5077021;28;20460;-64
2022/08/11 09:33:06;;;;;;;5.27;3.47;;;24.40;47.00;;;;;;5080684;28;20443;-62
2022/08/11 09:35:37;;;;;;;3.57;3.00;;;24.40;47.30;;;;;;5069612;28;21169;-61
2022/08/11 09:40:50;;;;;;;3.73;3.30;;;24.60;46.70;;;;;;5069608;28;21014;-61
2022/08/11 09:46:04;;;;;;;4.73;3.43;;;24.60;45.80;;;;;;5077046;28;20447;-61
2022/08/11 09:48:43;;;;;;;3.70;3.33;;;24.70;45.80;;;;;;5071988;28;20983;-61
2022/08/11 09:51:09;;;;;;;4.50;3.10;;;24.70;45.50;;;;;;5075779;28;20456;-61
2022/08/11 09:53:39;;;;;;;4.63;2.80;;;24.80;45.60;;;;;;5071843;28;20493;-61
2022/08/11 09:58:56;;;;;;;3.80;3.40;;;24.90;46.00;;;;;;5077310;28;21491;-61
2022/08/11 10:01:26;;;;;;;3.97;2.80;;;25.00;46.70;;;;;;5077195;28;20474;-61
2022/08/11 10:04:07;;;;;;;4.33;3.37;;;25.10;46.80;;;;;;5083249;28;20513;-60
2022/08/11 10:09:22;;;;;;;4.20;3.10;;;25.30;46.70;;;;;;5082609;28;20472;-60
2022/08/11 10:11:50;;;;;;;10.47;3.67;;;25.40;46.50;;;;;;5074216;28;20451;-61
2022/08/11 10:17:08;;;;;;;3.53;3.23;;;25.60;45.80;;;;;;5083766;28;20472;-61
2022/08/11 10:19:37;;;;;;;5.97;3.23;;;25.70;45.20;;;;;;5091078;28;20407;-61
2022/08/11 10:27:35;;;;;;;4.70;3.60;;;25.90;46.20;;;;;;5079675;28;20502;-60
2022/08/11 10:35:34;;;;;;;17.33;3.67;;;26.10;43.80;;;;;;5082874;28;20434;-61
2022/08/11 10:37:59;;;;;;;10.33;3.20;;;26.20;44.40;;;;;;5090490;28;20412;-61
2022/08/11 10:40:26;;;;;;;9.60;3.80;;;26.20;44.60;;;;;;5079461;28;20420;-61
2022/08/11 10:43:01;;;;;;;2.90;2.70;;;26.30;45.20;;;;;;5082514;28;20685;-62
2022/08/11 10:48:21;;;;;;;4.20;3.57;;;26.50;44.10;;;;;;5085221;28;20426;-61
2022/08/11 10:59:08;;;;;;;4.73;3.67;;;26.80;44.20;;;;;;5085861;28;20460;-61
2022/08/11 11:01:37;;;;;;;10.87;3.50;;;26.90;44.00;;;;;;5080795;28;20919;-61
2022/08/11 11:04:40;;;;;;;4.13;3.20;;;26.90;43.50;;;;;;5085956;28;20542;-61
2022/08/11 11:07:15;;;;;;;5.07;3.27;;;27.10;43.80;;;;;;5081251;28;20441;-61
2022/08/11 11:09:48;;;;;;;9.37;3.30;;;27.20;43.70;;;;;;5085832;28;20419;-61
2022/08/11 11:18:00;;;;;;;3.60;2.80;;;27.50;42.80;;;;;;5074752;28;20184;-61
2022/08/11 11:20:35;;;;;;;4.27;3.13;;;27.60;43.30;;;;;;5080744;28;20216;-62
2022/08/11 11:23:15;;;;;;;4.27;2.70;;;27.60;41.60;;;;;;5079340;28;20210;-61
2022/08/11 11:26:19;;;;;;;5.53;2.70;;;27.70;40.50;;;;;;5082055;28;20189;-61
2022/08/11 11:29:23;;;;;;;3.23;3.00;;;27.80;40.90;;;;;;5087235;28;20278;-61
2022/08/11 11:32:27;;;;;;;3.20;2.90;;;27.90;40.70;;;;;;5083326;28;20295;-61
2022/08/11 11:35:14;;;;;;;8.50;3.40;;;27.90;39.60;;;;;;5079631;28;20660;-61
2022/08/11 11:37:42;;;;;;;3.87;3.03;;;28.00;40.90;;;;;;5085412;28;20266;-61
2022/08/11 11:40:15;;;;;;;3.57;3.23;;;28.10;40.30;;;;;;5086135;28;20276;-61
2022/08/11 11:42:44;;;;;;;4.67;3.30;;;28.20;39.50;;;;;;5084273;28;20200;-62
2022/08/11 11:45:14;;;;;;;12.13;3.50;;;28.30;40.30;;;;;;5087790;28;20181;-61
2022/08/11 11:47:40;;;;;;;6.30;3.47;;;28.40;40.10;;;;;;5080622;28;20181;-61
2022/08/11 11:50:07;;;;;;;5.67;2.97;;;28.50;39.60;;;;;;5082665;28;20170;-61
2022/08/11 11:52:34;;;;;;;4.10;3.30;;;28.60;39.60;;;;;;5071323;28;20304;-62
2022/08/11 11:55:00;;;;;;;4.70;3.43;;;28.70;39.40;;;;;;5084970;28;20523;-60
2022/08/11 12:02:58;;;;;;;6.38;3.00;;;29.10;39.70;;;;;;5080678;28;20302;-60
2022/08/11 12:05:26;;;;;;;3.15;2.85;;;29.30;39.10;;;;;;5082656;28;20223;-61
2022/08/11 12:08:14;;;;;;;5.78;3.17;;;29.40;39.50;;;;;;5076635;28;20679;-61
2022/08/11 12:10:44;;;;;;;3.33;2.75;;;29.40;38.90;;;;;;5078765;28;20237;-61
2022/08/11 12:16:02;;;;;;;3.13;2.88;;;29.70;38.60;;;;;;5080975;28;20234;-63
2022/08/11 12:18:34;;;;;;;3.47;2.50;;;29.80;38.30;;;;;;5099385;28;20184;-63
2022/08/11 12:21:01;;;;;;;5.97;3.00;;;29.90;36.50;;;;;;5087539;28;20185;-63
2022/08/11 12:29:00;;;;;;;3.88;2.40;;;30.30;35.80;;;;;;5082590;28;20661;-63
2022/08/11 12:31:28;;;;;;;3.70;2.83;;;30.40;36.10;;;;;;5086052;28;20197;-62
2022/08/11 12:34:03;;;;;;;3.17;2.88;;;30.50;35.30;;;;;;5083989;28;20370;-63
2022/08/11 12:36:32;;;;;;;4.78;3.28;;;30.60;35.00;;;;;;5085276;28;20173;-62
2022/08/11 12:38:59;;;;;;;3.78;3.10;;;30.70;35.00;;;;;;5081669;28;20177;-61
2022/08/11 12:46:58;;;;;;;5.78;3.00;;;30.90;35.70;;;;;;5086214;28;20251;-61
2022/08/11 12:52:22;;;;;;;4.10;2.47;;;31.10;34.90;;;;;;5086021;28;20729;-61
2022/08/11 12:54:59;;;;;;;3.67;2.60;;;31.10;35.20;;;;;;5088027;28;20651;-62
2022/08/11 13:06:03;;;;;;;4.07;2.50;;;30.50;36.30;;;;;;5079797;28;20285;-61
2022/08/11 13:08:34;;;;;;;4.47;2.58;;;30.60;36.80;;;;;;5081248;28;20250;-61
2022/08/11 13:13:48;;;;;;;2.55;2.20;;;31.10;36.20;;;;;;5088494;28;20209;-61
2022/08/11 13:16:14;;;;;;;3.28;3.05;;;31.40;35.50;;;;;;5079295;28;20596;-61
2022/08/11 13:18:41;;;;;;;3.20;2.25;;;31.60;34.30;;;;;;5079332;28;20167;-63
2022/08/11 13:21:10;;;;;;;5.95;2.45;;;31.80;34.50;;;;;;5073097;28;20180;-61
2022/08/11 13:23:37;;;;;;;4.38;2.70;;;31.90;33.70;;;;;;5080810;28;20189;-61
2022/08/11 13:26:04;;;;;;;7.15;2.70;;;32.00;33.50;;;;;;5087689;28;20329;-61
2022/08/11 13:28:30;;;;;;;2.50;2.30;;;32.20;32.40;;;;;;5090618;28;20236;-61
2022/08/11 13:31:11;;;;;;;4.18;2.80;;;32.30;31.40;;;;;;5082086;28;20567;-62
2022/08/11 13:33:51;;;;;;;3.78;2.63;;;32.40;31.40;;;;;;5081777;28;20216;-61
2022/08/11 13:36:23;;;;;;;3.17;2.00;;;32.50;30.60;;;;;;5083454;28;20199;-61
2022/08/11 13:38:49;;;;;;;3.75;2.85;;;32.60;30.10;;;;;;5079687;28;20173;-61
2022/08/11 13:44:01;;;;;;;5.32;2.30;;;32.80;31.70;;;;;;5076200;28;20228;-63
2022/08/11 13:46:27;;;;;;;4.07;2.67;;;32.80;30.00;;;;;;5088751;28;20208;-61
2022/08/11 13:48:55;;;;;;;4.22;2.40;;;32.60;30.20;;;;;;5086725;28;20212;-61
2022/08/11 13:51:29;;;;;;;2.75;2.45;;;32.60;32.10;;;;;;5088818;28;20672;-61
2022/08/11 13:53:58;;;;;;;5.72;2.40;;;32.60;31.50;;;;;;5087367;28;20202;-62
2022/08/11 13:56:25;;;;;;;5.82;2.67;;;32.80;31.00;;;;;;5087888;28;20170;-61
2022/08/11 13:58:51;;;;;;;2.88;2.40;;;32.90;31.30;;;;;;5084568;28;20209;-61
2022/08/11 14:01:19;;;;;;;4.78;2.53;;;33.00;31.40;;;;;;5085886;28;20741;-60
2022/08/11 14:03:48;;;;;;;5.80;2.47;;;33.10;31.70;;;;;;5090804;28;20303;-61
2022/08/11 14:06:17;;;;;;;5.20;2.55;;;33.20;31.90;;;;;;5077774;28;20178;-61
2022/08/11 14:08:44;;;;;;;4.78;2.20;;;33.20;31.00;;;;;;5072387;28;20206;-61
2022/08/11 14:13:58;;;;;;;4.05;2.30;;;33.20;31.00;;;;;;5086111;28;20208;-62
2022/08/11 14:16:30;;;;;;;3.55;2.25;;;33.20;30.30;;;;;;5081182;28;20218;-62
2022/08/11 14:19:07;;;;;;;3.58;2.30;;;33.20;30.00;;;;;;5069911;28;20643;-62
2022/08/11 14:24:21;;;;;;;4.18;2.67;;;33.20;29.90;;;;;;5089088;28;20255;-61
2022/08/11 14:26:50;;;;;;;4.05;2.40;;;33.30;30.50;;;;;;5091074;28;20659;-61
2022/08/11 14:29:20;;;;;;;5.10;2.30;;;33.40;30.50;;;;;;5080996;28;20179;-62
2022/08/11 14:31:52;;;;;;;3.42;2.42;;;33.40;30.60;;;;;;5085585;28;20204;-61
2022/08/11 14:34:21;;;;;;;5.75;2.70;;;33.50;30.20;;;;;;5089077;28;20187;-60
2022/08/11 14:36:52;;;;;;;5.45;2.28;;;33.50;30.00;;;;;;5087471;28;20265;-61
2022/08/11 14:39:22;;;;;;;4.18;2.58;;;33.50;30.20;;;;;;5071218;28;20183;-62
2022/08/11 14:47:24;;;;;;;3.22;2.20;;;33.50;29.30;;;;;;5080871;28;20196;-62
2022/08/11 14:49:52;;;;;;;2.67;2.25;;;33.40;29.10;;;;;;5086452;28;20179;-61
2022/08/11 14:52:19;;;;;;;4.43;2.50;;;33.50;29.90;;;;;;5085152;28;20225;-61
2022/08/11 14:57:35;;;;;;;2.75;2.55;;;33.60;29.90;;;;;;5072939;28;20192;-62
2022/08/11 15:00:05;;;;;;;3.47;2.50;;;33.60;29.20;;;;;;5080764;28;20182;-61
2022/08/11 15:05:19;;;;;;;5.30;2.53;;;33.70;29.50;;;;;;5076124;28;20287;-61
2022/08/11 15:07:45;;;;;;;2.90;2.40;;;33.70;30.00;;;;;;5084964;28;20183;-60
2022/08/11 15:10:11;;;;;;;2.40;1.95;;;33.70;29.20;;;;;;5083866;28;20569;-61
2022/08/11 15:12:40;;;;;;;3.55;2.50;;;33.70;28.60;;;;;;5087120;28;20274;-61
2022/08/11 15:17:54;;;;;;;2.20;2.00;;;33.80;29.30;;;;;;5084313;28;20184;-60
2022/08/11 15:25:56;;;;;;;2.70;2.50;;;33.80;28.30;;;;;;5078879;28;20191;-61
2022/08/11 15:39:32;;;;;;;3.50;2.28;;;33.80;29.30;;;;;;5088343;28;20230;-62
2022/08/11 15:47:56;;;;;;;3.85;2.70;;;33.50;28.80;;;;;;5082997;28;20196;-61
2022/08/11 15:50:29;;;;;;;4.05;2.28;;;33.40;29.00;;;;;;5084008;28;20177;-62
2022/08/11 15:53:10;;;;;;;4.53;2.53;;;33.50;29.10;;;;;;5087184;28;20214;-62
2022/08/11 15:55:38;;;;;;;3.08;2.58;;;33.50;28.90;;;;;;5091141;28;20241;-62
2022/08/11 16:04:11;;;;;;;5.03;2.47;;;33.30;29.80;;;;;;5092212;28;20231;-62
2022/08/11 16:06:49;;;;;;;3.10;2.33;;;33.20;29.00;;;;;;5088229;28;20625;-62
2022/08/11 16:09:33;;;;;;;3.80;2.42;;;33.00;29.30;;;;;;5076656;28;20186;-62
2022/08/11 16:12:03;;;;;;;6.40;2.50;;;32.70;29.50;;;;;;5086465;28;20256;-62
2022/08/11 16:17:21;;;;;;;3.85;2.88;;;31.90;30.90;;;;;;5088175;28;20232;-61
2022/08/11 16:19:50;;;;;;;3.72;2.75;;;31.40;31.00;;;;;;5091746;28;20208;-61
2022/08/11 16:22:31;;;;;;;5.60;2.65;;;31.00;31.60;;;;;;5089263;28;20181;-61
2022/08/11 16:24:59;;;;;;;3.10;2.33;;;30.50;32.00;;;;;;5082805;28;20180;-62
2022/08/11 16:27:26;;;;;;;4.88;3.22;;;30.10;32.60;;;;;;5089463;28;20179;-61
2022/08/11 16:29:54;;;;;;;4.32;3.05;;;29.70;33.50;;;;;;5089134;28;20755;-61
2022/08/11 16:32:22;;;;;;;4.30;2.92;;;29.40;33.60;;;;;;5083223;28;20273;-62
2022/08/11 16:40:31;;;;;;;3.13;2.72;;;28.50;34.60;;;;;;5085062;28;20220;-62
2022/08/11 16:48:32;;;;;;;2.67;2.47;;;27.90;34.70;;;;;;5092070;28;20798;-62
2022/08/11 16:50:59;;;;;;;2.60;2.38;;;27.70;35.00;;;;;;5095804;28;20170;-62
2022/08/11 16:53:29;;;;;;;7.65;3.25;;;27.50;35.40;;;;;;5082319;28;20622;-62
2022/08/11 16:55:57;;;;;;;9.65;2.83;;;27.50;36.00;;;;;;5090255;28;20174;-62
2022/08/11 17:01:09;;;;;;;3.10;2.80;;;27.20;36.20;;;;;;5088873;28;20235;-61
2022/08/11 17:14:53;;;;;;;4.60;2.67;;;26.70;36.60;;;;;;5074315;28;20176;-62
2022/08/11 17:17:34;;;;;;;4.13;3.30;;;26.70;36.50;;;;;;5084297;28;20173;-62
2022/08/11 17:20:09;;;;;;;6.47;3.13;;;26.60;36.90;;;;;;5091181;28;20174;-62
2022/08/11 17:25:27;;;;;;;3.40;2.77;;;26.50;37.20;;;;;;5083718;28;20184;-63
2022/08/11 17:27:54;;;;;;;8.17;2.90;;;26.40;37.00;;;;;;5072828;28;20166;-62
2022/08/11 17:30:20;;;;;;;3.50;3.10;;;26.30;37.30;;;;;;5082655;28;20574;-62
2022/08/11 17:35:39;;;;;;;6.20;3.27;;;26.20;37.90;;;;;;5086173;28;20211;-62
2022/08/11 17:38:17;;;;;;;3.33;2.70;;;26.10;37.90;;;;;;5091065;28;20678;-62
2022/08/11 17:49:07;;;;;;;3.20;2.90;;;25.80;39.40;;;;;;5084235;28;20480;-62
2022/08/11 17:59:55;;;;;;;5.50;3.37;;;25.50;39.50;;;;;;5075747;28;20520;-62
2022/08/11 18:05:20;;;;;;;4.73;3.23;;;25.40;40.20;;;;;;5085282;28;20435;-61
